Terminal Aerodrome Forecast
Issued by NWS

Home | Current Version | Previous Version | Text Only | Print | Product List | Glossary On
Versions: 1 2 3 4 5 6 7 8 9 10 11 12 13 14 15 16 17 18 19 20 21 22 23
000
FTUS43 KAPX 251737 AAB
TAFMBL
TAF AMD
KMBL 251737Z 2518/2618 15010G17KT P6SM SCT040 BKN120
     FM260000 15012G21KT 6SM SHRA BKN040 WS020/17035KT
     FM260300 17010G18KT 6SM SHRA BKN015 OVC035 WS020/17035KT
     FM260500 23007KT P6SM SHRA BKN025 OVC035 WS020/17035KT
     FM260700 25007KT P6SM BKN025 OVC035
     FM261100 25011G22KT P6SM OVC025
     FM261400 25014G25KT P6SM SCT025 BKN035=

USA.gov is the U.S. government's official web portal to all federal, state and local government web resources and services.